createdAt,value
2023-04-24T04:55:23.439Z,13.05
2023-04-24T05:00:27.281Z,12.93
2023-04-24T05:05:30.766Z,12.30
2023-04-24T05:10:35.832Z,12.45
2023-04-24T05:15:39.575Z,11.77
2023-04-24T05:20:44.705Z,9.88
2023-04-24T05:25:49.694Z,9.35
2023-04-24T05:30:53.088Z,9.15
2023-04-24T05:35:57.125Z,9.20
2023-04-24T05:41:02.353Z,7.75
2023-04-24T05:46:05.923Z,6.80
2023-04-24T05:51:09.358Z,7.45
2023-04-24T05:56:14.192Z,7.15
2023-04-24T06:01:17.693Z,6.80
2023-04-24T06:06:21.442Z,6.38
2023-04-24T06:11:26.451Z,6.22
2023-04-24T06:16:29.895Z,6.40
2023-04-24T06:21:33.580Z,6.78
2023-04-24T06:26:38.406Z,6.55
2023-04-24T06:31:41.821Z,6.18
2023-04-24T06:36:45.602Z,5.60
2023-04-24T06:41:50.379Z,6.43
2023-04-24T06:46:53.930Z,5.70
2023-04-24T06:51:57.378Z,6.10
2023-04-24T06:57:03.478Z,6.28
2023-04-24T07:02:07.377Z,6.35
2023-04-24T07:07:14.061Z,6.55
2023-04-24T07:12:21.554Z,5.93
2023-04-24T07:17:25.063Z,6.30
2023-04-24T07:22:28.542Z,5.80
2023-04-24T07:27:33.357Z,5.82
2023-04-24T07:32:37.039Z,5.72
2023-04-24T07:37:40.934Z,6.63
2023-04-24T07:42:45.834Z,5.47
2023-04-24T07:47:49.350Z,4.97
2023-04-24T07:52:52.773Z,4.97
2023-04-24T07:57:57.555Z,5.65
2023-04-24T08:03:01.137Z,5.68
2023-04-24T08:08:04.752Z,4.82
2023-04-24T08:13:09.584Z,5.70
2023-04-24T08:18:14.554Z,5.80
2023-04-24T08:23:17.999Z,5.38
2023-04-24T08:28:23.180Z,5.75
2023-04-24T08:33:26.781Z,5.15
2023-04-24T08:38:30.805Z,5.13
2023-04-24T08:43:37.526Z,5.78
2023-04-24T08:48:41.514Z,6.57
2023-04-24T08:53:45.561Z,7.28
2023-04-24T08:58:50.691Z,6.38
2023-04-24T09:03:55.462Z,6.07
2023-04-24T09:09:02.281Z,6.15
2023-04-24T09:14:07.269Z,6.20
2023-04-24T09:19:10.951Z,8.00
2023-04-24T09:24:18.778Z,6.68
2023-04-24T09:29:23.598Z,6.03
2023-04-24T09:34:28.711Z,6.70
2023-04-24T09:39:32.368Z,6.93
2023-04-24T09:44:37.183Z,6.72
2023-04-24T09:49:42.541Z,6.47
2023-04-24T09:54:55.159Z,6.10
2023-04-24T09:59:59.992Z,6.07
2023-04-24T10:05:03.443Z,5.35
2023-04-24T10:10:08.157Z,5.82
2023-04-24T10:15:14.869Z,5.65
2023-04-24T10:20:19.178Z,6.07
2023-04-24T10:25:24.797Z,6.00
2023-04-24T10:30:31.122Z,5.25
2023-04-24T10:35:42.624Z,6.00
2023-04-24T10:40:46.776Z,6.13
2023-04-24T10:46:05.013Z,5.65
2023-04-24T10:51:14.375Z,6.70
2023-04-24T10:56:18.521Z,7.07
2023-04-24T11:01:31.390Z,5.88
2023-04-24T11:06:37.116Z,6.72
2023-04-24T11:11:46.829Z,5.80
2023-04-24T11:16:56.285Z,6.20
2023-04-24T11:22:02.729Z,6.40
2023-04-24T11:27:14.915Z,5.97
2023-04-24T11:32:30.652Z,5.70
2023-04-24T11:37:37.539Z,6.13
2023-04-24T11:42:43.562Z,6.93
2023-04-24T11:47:49.018Z,6.05
2023-04-24T11:52:52.794Z,5.10
2023-04-24T11:57:58.522Z,5.68
2023-04-24T12:03:11.601Z,6.53
2023-04-24T12:08:29.402Z,6.38
2023-04-24T12:13:36.675Z,6.55
2023-04-24T12:18:46.116Z,6.07
2023-04-24T12:23:50.029Z,5.68
2023-04-24T12:28:53.396Z,5.57
2023-04-24T12:33:58.201Z,6.18
2023-04-24T12:39:01.948Z,6.35
2023-04-24T12:44:05.516Z,6.18
2023-04-24T12:49:10.357Z,6.07
2023-04-24T12:54:14.061Z,5.47
2023-04-24T12:59:17.506Z,5.70
2023-04-24T13:04:22.414Z,5.65
2023-04-24T13:09:26.053Z,7.05
2023-04-24T13:14:29.710Z,4.30
2023-04-24T13:19:39.982Z,4.03
2023-04-24T13:24:43.460Z,2.58
2023-04-24T13:29:48.242Z,4.15
2023-04-24T13:34:53.311Z,2.13
2023-04-24T13:39:56.706Z,2.03
2023-04-24T13:45:02.281Z,2.67
2023-04-24T13:50:10.457Z,2.35
2023-04-24T13:55:14.196Z,2.38
2023-04-24T14:00:18.892Z,1.77
2023-04-24T14:05:23.775Z,1.80
2023-04-24T14:10:28.204Z,1.65
2023-04-24T14:15:31.758Z,2.03
2023-04-24T14:20:36.622Z,1.70
2023-04-24T14:25:40.037Z,2.20
2023-04-24T14:30:44.145Z,1.90
2023-04-24T14:35:49.293Z,2.00
2023-04-24T14:41:06.199Z,1.88
2023-04-24T14:46:11.344Z,2.13
2023-04-24T14:51:16.218Z,3.15
2023-04-24T14:56:19.695Z,2.83
2023-04-24T15:01:23.591Z,3.13
2023-04-24T15:06:28.709Z,1.88
2023-04-24T15:11:32.286Z,1.40
2023-04-24T15:16:36.326Z,0.80
2023-04-24T15:21:42.499Z,1.30
2023-04-24T15:26:45.981Z,1.40
2023-04-24T15:31:49.584Z,2.53
2023-04-24T15:36:54.619Z,2.97
2023-04-24T15:41:58.599Z,2.90
2023-04-24T15:47:03.726Z,2.53
2023-04-24T15:52:10.554Z,1.75
2023-04-24T15:57:14.208Z,2.33
2023-04-24T16:02:19.386Z,1.70
2023-04-24T16:07:24.566Z,3.25
2023-04-24T16:12:28.697Z,3.05
2023-04-24T16:17:32.456Z,3.08
2023-04-24T16:22:37.453Z,3.22
2023-04-24T16:27:40.891Z,2.75
2023-04-24T16:32:44.410Z,3.30
2023-04-24T16:37:49.207Z,3.75
2023-04-24T16:42:52.935Z,3.63
2023-04-24T16:47:56.834Z,3.22
2023-04-24T16:53:01.607Z,4.22
2023-04-24T16:58:05.017Z,4.10
2023-04-24T17:03:09.878Z,3.95
2023-04-24T17:08:16.569Z,4.90
2023-04-24T17:13:20.385Z,3.47
2023-04-24T17:18:24.400Z,5.10
2023-04-24T17:23:29.426Z,4.65
2023-04-24T17:28:33.863Z,6.45
2023-04-24T17:33:37.273Z,6.78
2023-04-24T17:38:42.345Z,4.60
2023-04-24T17:43:46.298Z,3.38
2023-04-24T17:48:49.970Z,5.60
2023-04-24T17:53:54.742Z,3.60
2023-04-24T17:58:59.070Z,3.63
2023-04-24T18:04:02.650Z,4.70
2023-04-24T18:09:08.399Z,3.25
2023-04-24T18:14:11.843Z,3.83
2023-04-24T18:19:15.424Z,4.22
2023-04-24T18:24:22.332Z,4.95
2023-04-24T18:29:25.884Z,5.13
2023-04-24T18:34:31.187Z,4.47
2023-04-24T18:39:36.162Z,4.53
2023-04-24T18:44:41.112Z,6.15
2023-04-24T18:49:45.099Z,5.85
2023-04-24T18:54:50.611Z,4.28
2023-04-24T18:59:54.142Z,7.05
2023-04-24T19:04:57.724Z,5.30
2023-04-24T19:10:02.555Z,5.72
2023-04-24T19:15:07.084Z,6.30
2023-04-24T19:20:11.166Z,5.18
2023-04-24T19:25:16.004Z,6.45
2023-04-24T19:30:19.486Z,7.50
2023-04-24T19:35:23.950Z,7.38
2023-04-24T19:40:29.033Z,8.15
2023-04-24T19:45:35.078Z,8.40
2023-04-24T19:50:39.065Z,8.30
2023-04-24T19:55:43.811Z,6.97
2023-04-24T20:00:48.128Z,5.13
2023-04-24T20:05:52.510Z,4.18
2023-04-24T20:10:58.620Z,3.63
2023-04-24T20:16:03.043Z,3.65
2023-04-24T20:21:07.157Z,3.33
2023-04-24T20:26:12.814Z,3.30
2023-04-24T20:31:16.940Z,3.65
2023-04-24T20:36:20.754Z,3.75
2023-04-24T20:41:26.669Z,3.90
2023-04-24T20:46:30.563Z,4.15
2023-04-24T20:51:34.527Z,4.15
2023-04-24T20:56:39.395Z,4.70
2023-04-24T21:01:44.340Z,4.68
2023-04-24T21:06:47.889Z,4.07
2023-04-24T21:11:52.716Z,4.28
2023-04-24T21:16:57.532Z,4.00
2023-04-24T21:22:01.265Z,4.57
2023-04-24T21:27:07.460Z,4.25
2023-04-24T21:32:11.243Z,5.40
2023-04-24T21:37:15.537Z,4.38
2023-04-24T21:42:21.126Z,5.30
2023-04-24T21:47:24.541Z,3.95
2023-04-24T21:52:27.962Z,5.20
2023-04-24T21:57:33.002Z,4.38
2023-04-24T22:02:36.651Z,4.05
2023-04-24T22:07:40.141Z,3.25
2023-04-24T22:12:45.564Z,2.78
2023-04-24T22:17:49.688Z,2.60
2023-04-24T22:22:53.496Z,2.75
2023-04-24T22:27:58.312Z,2.50
